Time;durP1;ratioP1;P1;durP2;ratioP2;P2;SDS_P1;SDS_P2;PMS_P1;PMS_P2;Temp;Humidity;BMP_temperature;BMP_pressure;BME280_temperature;BME280_humidity;BME280_pressure;Samples;Min_cycle;Max_cycle;Signal;HPM_P1;HPM_P2
2023/06/15 00:00:24;;;;;;;5.72;3.38;;;18.80;99.90;;;;;;5040114;28;20572;-73
2023/06/15 00:02:50;;;;;;;4.40;3.13;;;18.80;99.90;;;;;;5027310;28;20196;-73
2023/06/15 00:05:16;;;;;;;4.82;3.53;;;18.80;99.90;;;;;;5039289;28;20186;-73
2023/06/15 00:07:42;;;;;;;5.22;3.55;;;18.80;99.90;;;;;;5038272;28;20771;-73
2023/06/15 00:10:09;;;;;;;6.18;3.58;;;18.80;99.90;;;;;;5036826;28;20212;-74
2023/06/15 00:12:34;;;;;;;5.38;3.60;;;18.80;99.90;;;;;;5033902;28;20220;-73
2023/06/15 00:15:00;;;;;;;9.30;3.58;;;18.80;99.90;;;;;;5032938;28;20263;-74
2023/06/15 00:17:26;;;;;;;7.70;3.72;;;18.80;99.90;;;;;;5036837;28;20674;-73
2023/06/15 00:19:53;;;;;;;7.32;3.72;;;18.70;99.90;;;;;;5039855;28;20215;-73
2023/06/15 00:22:19;;;;;;;5.13;3.63;;;18.70;99.90;;;;;;5032902;28;20303;-73
2023/06/15 00:24:45;;;;;;;8.35;4.45;;;18.70;99.90;;;;;;5032697;28;20212;-73
2023/06/15 00:27:10;;;;;;;9.93;6.38;;;18.70;99.90;;;;;;5036727;28;20231;-73
2023/06/15 00:29:37;;;;;;;20.45;13.20;;;18.60;99.90;;;;;;5022118;28;20642;-71
2023/06/15 00:32:06;;;;;;;22.58;13.10;;;18.50;99.90;;;;;;5030119;28;20212;-73
2023/06/15 00:34:32;;;;;;;11.85;6.78;;;18.60;99.90;;;;;;5017293;28;20220;-73
2023/06/15 00:36:57;;;;;;;15.68;9.80;;;18.60;99.90;;;;;;5016628;28;20216;-72
2023/06/15 00:39:23;;;;;;;7.53;4.68;;;18.60;99.90;;;;;;5038451;28;20204;-73
2023/06/15 00:41:49;;;;;;;7.50;4.13;;;18.50;99.90;;;;;;5035414;28;20192;-72
2023/06/15 00:44:14;;;;;;;5.45;3.55;;;18.40;99.90;;;;;;5029104;28;20235;-73
2023/06/15 00:46:40;;;;;;;6.72;3.88;;;18.50;99.90;;;;;;5043309;28;20278;-74
2023/06/15 00:49:07;;;;;;;4.82;3.55;;;18.50;99.90;;;;;;5038119;28;20220;-73
2023/06/15 00:51:35;;;;;;;4.18;3.38;;;18.30;99.90;;;;;;5028361;28;20204;-72
2023/06/15 00:54:02;;;;;;;7.28;3.78;;;18.10;99.90;;;;;;5032151;28;20265;-74
2023/06/15 00:56:29;;;;;;;6.07;3.00;;;18.20;99.90;;;;;;5030316;28;20207;-74
2023/06/15 00:58:56;;;;;;;5.88;3.60;;;18.20;99.90;;;;;;5028762;28;20729;-74
2023/06/15 01:01:22;;;;;;;5.78;3.63;;;18.10;99.90;;;;;;5023359;28;20208;-74
2023/06/15 01:03:47;;;;;;;5.82;3.72;;;18.20;99.90;;;;;;5028503;28;20212;-74
2023/06/15 01:06:15;;;;;;;6.05;3.58;;;18.10;99.90;;;;;;5032267;28;20606;-73
2023/06/15 01:08:43;;;;;;;8.45;3.25;;;18.10;99.90;;;;;;5032808;28;20721;-73
2023/06/15 01:11:10;;;;;;;6.82;3.55;;;18.10;99.90;;;;;;5027642;28;20254;-74
2023/06/15 01:13:36;;;;;;;5.22;3.20;;;18.00;99.90;;;;;;5019442;28;20560;-73
2023/06/15 01:16:08;;;;;;;4.28;3.03;;;18.00;99.90;;;;;;5031569;28;20217;-74
2023/06/15 01:18:36;;;;;;;4.90;3.75;;;17.90;99.90;;;;;;5031433;28;20210;-74
2023/06/15 01:21:04;;;;;;;5.25;3.47;;;17.90;99.90;;;;;;5031719;28;20207;-74
2023/06/15 01:23:40;;;;;;;4.63;3.53;;;18.00;99.90;;;;;;5030894;28;20196;-74
2023/06/15 01:26:07;;;;;;;5.68;3.53;;;17.90;99.90;;;;;;5019010;28;20207;-73
2023/06/15 01:28:45;;;;;;;5.20;3.22;;;17.90;99.90;;;;;;5033853;28;20216;-73
2023/06/15 01:31:12;;;;;;;5.68;3.22;;;17.90;99.90;;;;;;5035743;28;20207;-74
2023/06/15 01:33:45;;;;;;;5.45;4.00;;;17.90;99.90;;;;;;5031696;28;20219;-73
2023/06/15 01:36:10;;;;;;;6.30;3.38;;;17.80;99.90;;;;;;5026028;28;20271;-74
2023/06/15 01:38:36;;;;;;;6.47;3.70;;;17.80;99.90;;;;;;5035862;28;20618;-71
2023/06/15 01:41:03;;;;;;;6.75;3.70;;;17.70;99.90;;;;;;5023707;28;20203;-74
2023/06/15 01:43:31;;;;;;;4.95;3.75;;;17.60;99.90;;;;;;5027661;28;20243;-74
2023/06/15 01:45:58;;;;;;;6.15;3.15;;;17.50;99.90;;;;;;5033089;28;20270;-74
2023/06/15 01:48:25;;;;;;;6.20;3.45;;;17.50;99.90;;;;;;5031035;28;20220;-75
2023/06/15 01:50:52;;;;;;;8.15;3.55;;;17.60;99.90;;;;;;5032767;28;20180;-73
2023/06/15 01:53:17;;;;;;;6.72;3.35;;;17.50;99.90;;;;;;5031948;28;20211;-75
2023/06/15 01:55:43;;;;;;;4.95;3.83;;;17.50;99.90;;;;;;5016092;28;20208;-74
2023/06/15 01:58:11;;;;;;;4.57;3.83;;;17.50;99.90;;;;;;5033086;28;20227;-74
2023/06/15 02:00:37;;;;;;;4.40;3.42;;;17.50;99.90;;;;;;5035145;28;20215;-73
2023/06/15 02:03:03;;;;;;;5.95;3.75;;;17.40;99.90;;;;;;5016039;28;20219;-74
2023/06/15 02:05:28;;;;;;;6.88;3.70;;;17.30;99.90;;;;;;5018025;28;20569;-74
2023/06/15 02:07:54;;;;;;;6.93;3.50;;;17.30;99.90;;;;;;5031055;28;20208;-74
2023/06/15 02:10:22;;;;;;;6.82;3.58;;;17.30;99.90;;;;;;5017788;28;20207;-77
2023/06/15 02:12:47;;;;;;;4.80;3.20;;;17.30;99.90;;;;;;5030055;28;20208;-74
2023/06/15 02:15:13;;;;;;;4.38;3.20;;;17.20;99.90;;;;;;5035175;28;20291;-74
2023/06/15 02:17:39;;;;;;;5.40;3.45;;;17.20;99.90;;;;;;5020561;28;20407;-73
2023/06/15 02:20:10;;;;;;;5.70;3.78;;;17.10;99.90;;;;;;5027095;28;20196;-74
2023/06/15 02:22:36;;;;;;;4.60;3.25;;;17.10;99.90;;;;;;5028281;28;20199;-73
2023/06/15 02:25:03;;;;;;;13.13;3.83;;;17.10;99.90;;;;;;5031474;28;20323;-74
2023/06/15 02:27:28;;;;;;;5.72;3.83;;;17.10;99.90;;;;;;5030875;28;20208;-75
2023/06/15 02:29:55;;;;;;;6.50;3.25;;;17.20;99.90;;;;;;5036310;28;20250;-73
2023/06/15 02:32:48;;;;;;;4.70;3.78;;;17.20;99.90;;;;;;5037317;28;20180;-74
2023/06/15 02:35:14;;;;;;;5.72;3.85;;;17.10;99.90;;;;;;5005376;28;20287;-73
2023/06/15 02:37:41;;;;;;;3.92;3.53;;;17.00;99.90;;;;;;5032095;28;20244;-73
2023/06/15 02:40:08;;;;;;;7.80;4.10;;;17.10;99.90;;;;;;5034696;28;20204;-74
2023/06/15 02:42:35;;;;;;;8.93;3.80;;;17.00;99.90;;;;;;5037500;28;20211;-75
2023/06/15 02:45:02;;;;;;;4.30;3.53;;;16.90;99.90;;;;;;5018803;28;20242;-74
2023/06/15 02:47:31;;;;;;;6.35;4.35;;;16.90;99.90;;;;;;5041797;28;20195;-73
2023/06/15 02:49:59;;;;;;;9.18;4.03;;;16.90;99.90;;;;;;5036102;28;20215;-74
2023/06/15 02:52:30;;;;;;;7.57;3.55;;;16.60;99.90;;;;;;5040875;28;20577;-74
2023/06/15 02:54:59;;;;;;;6.05;3.83;;;16.80;99.90;;;;;;5037400;28;20303;-74
2023/06/15 02:57:26;;;;;;;5.63;4.00;;;16.80;99.90;;;;;;5021266;28;20299;-74
2023/06/15 02:59:52;;;;;;;9.82;3.83;;;16.90;99.90;;;;;;5060029;22;20238;-75
2023/06/15 03:02:20;;;;;;;7.15;4.00;;;16.90;99.90;;;;;;5040208;28;20176;-75
2023/06/15 03:04:46;;;;;;;4.70;3.72;;;17.00;99.90;;;;;;5027356;28;20839;-74
2023/06/15 03:07:16;;;;;;;6.28;3.70;;;17.00;99.90;;;;;;5049604;28;20207;-74
2023/06/15 03:09:52;;;;;;;9.10;6.68;;;17.00;99.90;;;;;;5031752;28;20215;-74
2023/06/15 03:12:19;;;;;;;12.32;8.43;;;17.00;99.90;;;;;;5047742;28;20253;-74
2023/06/15 03:14:49;;;;;;;6.40;4.40;;;17.10;99.90;;;;;;5043670;28;20179;-74
2023/06/15 03:17:16;;;;;;;8.68;6.88;;;17.00;99.90;;;;;;5042700;28;20204;-74
2023/06/15 03:19:43;;;;;;;8.50;3.85;;;17.00;99.90;;;;;;5027634;28;20229;-74
2023/06/15 03:22:09;;;;;;;5.13;4.20;;;17.00;99.90;;;;;;5040767;28;20708;-73
2023/06/15 03:24:35;;;;;;;4.55;3.25;;;17.10;99.90;;;;;;5029246;28;20278;-74
2023/06/15 03:27:03;;;;;;;5.68;3.70;;;17.10;99.90;;;;;;5031516;28;20215;-75
2023/06/15 03:29:29;;;;;;;5.57;3.67;;;17.20;99.90;;;;;;5049620;28;20549;-73
2023/06/15 03:31:58;;;;;;;8.30;4.00;;;17.30;99.90;;;;;;5025992;28;20218;-73
2023/06/15 03:34:28;;;;;;;6.70;3.88;;;17.30;99.90;;;;;;5026654;28;20212;-74
2023/06/15 03:36:53;;;;;;;10.63;3.72;;;17.30;99.90;;;;;;5032379;28;20211;-72
2023/06/15 03:39:19;;;;;;;8.65;4.10;;;17.40;99.90;;;;;;5049722;28;20700;-74
2023/06/15 03:41:45;;;;;;;4.50;3.85;;;17.30;99.90;;;;;;5053795;28;20175;-74
2023/06/15 03:44:11;;;;;;;6.05;3.22;;;17.30;99.90;;;;;;5046594;28;20252;-75
2023/06/15 03:46:37;;;;;;;6.32;3.90;;;17.30;99.90;;;;;;5043356;28;20211;-74
2023/06/15 03:49:02;;;;;;;6.35;3.35;;;17.40;99.90;;;;;;5045208;28;20208;-76
2023/06/15 03:51:28;;;;;;;4.53;3.42;;;17.40;99.90;;;;;;5052888;28;20303;-74
2023/06/15 03:53:54;;;;;;;4.35;3.45;;;17.40;99.90;;;;;;5053143;28;20641;-74
2023/06/15 03:56:19;;;;;;;5.40;3.55;;;17.30;99.90;;;;;;5053831;28;20669;-75
2023/06/15 03:58:45;;;;;;;6.88;4.20;;;17.40;99.90;;;;;;5048095;28;20416;-75
2023/06/15 04:01:14;;;;;;;5.38;3.60;;;17.20;99.90;;;;;;5028597;28;20224;-73
2023/06/15 04:03:40;;;;;;;7.05;3.60;;;17.30;99.90;;;;;;5045177;28;20631;-73
2023/06/15 04:06:06;;;;;;;6.05;3.70;;;17.50;99.90;;;;;;5050617;28;20256;-75
2023/06/15 04:08:32;;;;;;;6.75;3.70;;;17.90;99.90;;;;;;5053145;28;20557;-74
2023/06/15 04:10:58;;;;;;;4.95;3.50;;;18.40;99.90;;;;;;5051707;28;20211;-75
2023/06/15 04:13:24;;;;;;;5.88;3.38;;;18.70;99.90;;;;;;5044403;28;20219;-75
2023/06/15 04:15:51;;;;;;;6.45;3.50;;;18.60;99.90;;;;;;5035025;28;20212;-75
2023/06/15 04:18:17;;;;;;;9.15;3.90;;;18.70;99.90;;;;;;5047442;28;20265;-75
2023/06/15 04:20:43;;;;;;;5.25;3.80;;;18.50;99.90;;;;;;5023849;28;20223;-74
2023/06/15 04:23:10;;;;;;;6.93;3.80;;;18.40;99.90;;;;;;5050209;28;20168;-74
2023/06/15 04:25:37;;;;;;;5.97;3.75;;;18.40;99.90;;;;;;5038113;28;20203;-73
2023/06/15 04:28:05;;;;;;;4.80;3.80;;;18.40;99.90;;;;;;5057450;28;20203;-75
2023/06/15 04:30:32;;;;;;;6.18;3.67;;;18.40;99.90;;;;;;5057020;28;20818;-74
2023/06/15 04:32:59;;;;;;;7.25;3.45;;;18.40;99.90;;;;;;5050123;28;20241;-75
2023/06/15 04:35:31;;;;;;;6.03;3.35;;;18.80;99.90;;;;;;5057268;28;20175;-75
2023/06/15 04:37:58;;;;;;;5.55;3.28;;;19.00;99.90;;;;;;5029525;28;20215;-73
2023/06/15 04:40:24;;;;;;;5.75;3.75;;;19.30;99.90;;;;;;5055230;28;20284;-75
2023/06/15 04:42:50;;;;;;;5.07;3.22;;;19.50;99.90;;;;;;5056675;28;20208;-76
2023/06/15 04:45:16;;;;;;;9.43;3.47;;;19.80;99.90;;;;;;5035745;28;20329;-74
2023/06/15 04:47:42;;;;;;;6.35;3.28;;;19.80;99.90;;;;;;5054825;28;20266;-75
2023/06/15 04:50:09;;;;;;;5.25;3.50;;;19.90;99.90;;;;;;5053977;28;20203;-74
2023/06/15 04:52:35;;;;;;;4.25;3.05;;;20.00;99.90;;;;;;5049267;28;20235;-73
2023/06/15 04:55:01;;;;;;;6.72;3.38;;;20.00;99.90;;;;;;5052536;28;20219;-75
2023/06/15 04:57:26;;;;;;;5.15;3.30;;;20.40;99.90;;;;;;5050940;28;20216;-75
2023/06/15 04:59:52;;;;;;;7.82;3.55;;;21.10;99.90;;;;;;5054522;28;20643;-74
2023/06/15 05:02:17;;;;;;;7.50;3.42;;;22.40;99.90;;;;;;5033179;28;20242;-73
2023/06/15 05:04:43;;;;;;;5.22;3.58;;;23.10;99.90;;;;;;5045941;28;20204;-74
2023/06/15 05:07:09;;;;;;;4.82;3.25;;;23.50;99.90;;;;;;5048759;28;20231;-74
2023/06/15 05:09:35;;;;;;;7.45;3.22;;;22.90;99.90;;;;;;5054525;28;20207;-75
2023/06/15 05:12:01;;;;;;;6.28;3.38;;;23.00;99.90;;;;;;5051721;28;20757;-74
2023/06/15 05:14:26;;;;;;;6.18;3.30;;;23.60;99.90;;;;;;5054283;28;20183;-75
2023/06/15 05:16:53;;;;;;;7.05;3.22;;;24.30;99.90;;;;;;5054670;28;20211;-73
2023/06/15 05:19:20;;;;;;;5.60;3.30;;;25.70;99.90;;;;;;5054831;28;20253;-75
2023/06/15 05:21:49;;;;;;;5.95;3.40;;;26.70;99.90;;;;;;5053136;28;20214;-75
2023/06/15 05:24:15;;;;;;;5.85;3.55;;;27.90;99.90;;;;;;5047858;28;20700;-75
2023/06/15 05:26:41;;;;;;;5.32;3.67;;;28.60;99.90;;;;;;5053493;28;20249;-75
2023/06/15 05:29:06;;;;;;;3.65;3.10;;;29.40;99.90;;;;;;5053217;28;20180;-74
2023/06/15 05:31:33;;;;;;;4.88;2.90;;;29.20;99.90;;;;;;5030139;28;20216;-74
2023/06/15 05:33:58;;;;;;;5.03;3.45;;;28.40;99.90;;;;;;5030470;28;20210;-76
2023/06/15 05:36:30;;;;;;;5.03;3.60;;;27.50;99.90;;;;;;5047720;28;20207;-75
2023/06/15 05:38:57;;;;;;;3.28;2.85;;;27.10;99.90;;;;;;5026551;28;20173;-74
2023/06/15 05:41:22;;;;;;;5.05;3.38;;;27.20;99.90;;;;;;5047822;28;20227;-77
2023/06/15 05:43:48;;;;;;;3.97;2.90;;;27.70;99.90;;;;;;5025763;28;20660;-76
2023/06/15 05:46:15;;;;;;;4.22;3.40;;;27.60;99.90;;;;;;5032576;28;20222;-74
2023/06/15 05:48:40;;;;;;;5.32;3.53;;;27.50;99.90;;;;;;5029366;28;20589;-75
2023/06/15 05:51:06;;;;;;;3.25;2.90;;;27.90;99.90;;;;;;5048454;28;20211;-74
2023/06/15 05:53:31;;;;;;;4.00;3.00;;;27.90;99.90;;;;;;5047715;28;20188;-75
2023/06/15 05:55:57;;;;;;;6.20;3.25;;;28.40;99.90;;;;;;5046944;28;20207;-76
2023/06/15 05:58:23;;;;;;;3.45;3.15;;;28.40;99.80;;;;;;5031461;28;20203;-74
2023/06/15 06:00:48;;;;;;;4.82;3.35;;;28.70;99.00;;;;;;5049837;28;20700;-74
2023/06/15 06:03:14;;;;;;;8.50;2.95;;;30.00;97.40;;;;;;5050390;28;20214;-76
2023/06/15 06:05:40;;;;;;;4.68;3.38;;;30.20;95.70;;;;;;5032132;28;20580;-76
2023/06/15 06:08:06;;;;;;;7.28;3.03;;;31.10;94.60;;;;;;5029235;28;20214;-75
2023/06/15 06:10:32;;;;;;;5.55;2.80;;;30.50;94.20;;;;;;5049747;28;20227;-76
2023/06/15 06:12:58;;;;;;;3.95;2.90;;;30.40;93.70;;;;;;5041283;28;20208;-76
2023/06/15 06:15:24;;;;;;;4.43;3.33;;;29.80;93.80;;;;;;5028949;28;20593;-75
2023/06/15 06:17:50;;;;;;;4.35;2.85;;;29.90;93.90;;;;;;5046074;28;20219;-76
2023/06/15 06:20:15;;;;;;;4.68;2.90;;;29.40;94.20;;;;;;5030593;28;20637;-75
2023/06/15 06:22:41;;;;;;;6.93;3.53;;;29.10;95.00;;;;;;5043605;28;20705;-75
2023/06/15 06:25:07;;;;;;;4.07;3.00;;;28.20;95.40;;;;;;5046620;28;20314;-78
2023/06/15 06:27:33;;;;;;;5.13;3.22;;;27.70;96.40;;;;;;5024060;28;20591;-76
2023/06/15 06:29:59;;;;;;;5.65;2.95;;;27.10;97.10;;;;;;5029904;28;20208;-76
2023/06/15 06:32:25;;;;;;;5.20;3.05;;;26.30;98.40;;;;;;5025389;28;20184;-75
2023/06/15 06:34:50;;;;;;;7.18;3.05;;;26.10;99.30;;;;;;5049662;28;20210;-75
2023/06/15 06:37:16;;;;;;;5.05;3.08;;;26.40;99.90;;;;;;5028104;28;20227;-75
2023/06/15 06:39:42;;;;;;;6.18;3.00;;;26.30;99.70;;;;;;5047748;28;20226;-75
2023/06/15 06:42:07;;;;;;;5.15;3.47;;;26.10;99.90;;;;;;5043089;28;20729;-75
2023/06/15 06:44:33;;;;;;;5.43;2.80;;;26.00;99.90;;;;;;5028520;28;20664;-75
2023/06/15 06:47:01;;;;;;;5.78;2.65;;;25.50;99.90;;;;;;5049554;28;20227;-75
2023/06/15 06:49:27;;;;;;;5.38;2.88;;;25.60;99.90;;;;;;5031323;28;20586;-76
2023/06/15 06:51:52;;;;;;;5.82;3.10;;;26.00;99.90;;;;;;5051169;28;20207;-75
2023/06/15 06:54:18;;;;;;;4.72;3.10;;;27.00;99.90;;;;;;5045717;28;20211;-75
2023/06/15 06:56:44;;;;;;;8.82;3.58;;;27.00;99.90;;;;;;5049937;28;20644;-73
2023/06/15 06:59:09;;;;;;;3.58;3.08;;;27.10;99.40;;;;;;5029497;28;20282;-75
2023/06/15 07:01:35;;;;;;;4.32;2.90;;;27.50;99.00;;;;;;5053026;28;20270;-75
2023/06/15 07:04:01;;;;;;;5.53;3.25;;;27.40;98.40;;;;;;5053141;28;20238;-75
2023/06/15 07:06:26;;;;;;;6.97;3.35;;;27.30;98.90;;;;;;5052649;28;20215;-74
2023/06/15 07:08:52;;;;;;;7.82;3.45;;;26.90;99.70;;;;;;5048739;28;20183;-75
2023/06/15 07:11:18;;;;;;;4.22;3.08;;;26.80;99.50;;;;;;5045299;28;20211;-74
2023/06/15 07:13:44;;;;;;;6.47;3.15;;;26.60;99.80;;;;;;5050109;28;20594;-74
2023/06/15 07:16:09;;;;;;;8.00;3.78;;;27.00;99.70;;;;;;5050861;28;20238;-76
2023/06/15 07:18:35;;;;;;;4.57;3.17;;;27.60;99.10;;;;;;5053443;28;20199;-73
2023/06/15 07:21:00;;;;;;;4.57;3.22;;;28.40;97.60;;;;;;5047487;28;20215;-74
2023/06/15 07:23:26;;;;;;;6.63;3.50;;;29.40;96.60;;;;;;5052326;28;20661;-74
2023/06/15 07:25:53;;;;;;;3.22;2.55;;;30.50;94.30;;;;;;5048602;28;20219;-75
2023/06/15 07:28:19;;;;;;;5.18;3.13;;;31.70;92.90;;;;;;5046434;28;20328;-74
2023/06/15 07:30:46;;;;;;;7.63;2.90;;;32.90;90.80;;;;;;5049568;28;20213;-75
2023/06/15 07:33:12;;;;;;;5.75;3.28;;;33.70;87.70;;;;;;5050294;28;20234;-75
2023/06/15 07:35:38;;;;;;;4.50;3.33;;;34.00;84.30;;;;;;5030448;28;20171;-74
2023/06/15 07:38:03;;;;;;;4.68;3.20;;;33.90;83.80;;;;;;5044755;28;20203;-75
2023/06/15 07:40:29;;;;;;;6.93;3.63;;;33.50;82.20;;;;;;5022270;28;20207;-74
2023/06/15 07:42:55;;;;;;;3.67;3.33;;;32.70;83.80;;;;;;5029044;28;20728;-76
2023/06/15 07:45:20;;;;;;;5.07;3.40;;;31.80;86.20;;;;;;5047877;28;20208;-74
2023/06/15 07:47:46;;;;;;;7.15;3.22;;;31.40;87.40;;;;;;5048624;28;20167;-74
2023/06/15 07:50:12;;;;;;;5.75;3.28;;;30.40;89.00;;;;;;5049701;28;20191;-74
2023/06/15 07:52:37;;;;;;;32.92;21.55;;;29.80;90.50;;;;;;5045686;28;20199;-74
2023/06/15 07:55:04;;;;;;;18.95;10.13;;;29.00;91.30;;;;;;5048141;28;20210;-73
2023/06/15 07:57:30;;;;;;;7.20;4.55;;;29.70;91.20;;;;;;5050038;28;20239;-75
2023/06/15 07:59:58;;;;;;;4.68;3.88;;;30.80;90.20;;;;;;5049531;28;20639;-75
2023/06/15 08:02:24;;;;;;;6.18;3.80;;;31.70;89.00;;;;;;5051611;28;20171;-76
2023/06/15 08:04:50;;;;;;;6.78;5.15;;;33.00;85.10;;;;;;5049603;28;20221;-73
2023/06/15 08:07:16;;;;;;;10.55;4.53;;;33.50;83.20;;;;;;5031189;28;20300;-74
2023/06/15 08:09:42;;;;;;;5.70;3.78;;;34.50;80.70;;;;;;5049801;28;20240;-73
2023/06/15 08:12:09;;;;;;;5.65;3.97;;;34.50;79.00;;;;;;5031329;28;20207;-73
2023/06/15 08:14:36;;;;;;;5.63;3.92;;;33.60;79.20;;;;;;5033830;28;20277;-74
2023/06/15 08:17:02;;;;;;;8.40;4.18;;;32.50;80.80;;;;;;5050839;28;20211;-76
2023/06/15 08:19:27;;;;;;;9.10;3.33;;;31.70;82.80;;;;;;5047235;28;20206;-75
2023/06/15 08:21:53;;;;;;;5.22;3.60;;;32.30;82.90;;;;;;5043248;28;20203;-74
2023/06/15 08:24:19;;;;;;;3.50;3.20;;;32.80;81.00;;;;;;5047714;28;20293;-76
2023/06/15 08:26:45;;;;;;;6.03;3.78;;;34.00;79.30;;;;;;5047765;28;20240;-73
2023/06/15 08:29:11;;;;;;;7.47;3.85;;;34.80;77.60;;;;;;5046441;28;20182;-73
2023/06/15 08:31:36;;;;;;;22.25;14.70;;;34.90;76.60;;;;;;5047106;28;20203;-74
2023/06/15 08:34:02;;;;;;;16.92;13.15;;;34.90;75.60;;;;;;5049605;28;20260;-74
2023/06/15 08:36:30;;;;;;;12.88;7.65;;;34.00;76.20;;;;;;5048696;28;20211;-75
2023/06/15 08:38:56;;;;;;;6.18;3.97;;;34.60;77.70;;;;;;5031855;28;20175;-74
2023/06/15 08:41:25;;;;;;;6.40;5.35;;;34.70;76.10;;;;;;5048027;28;20357;-73
2023/06/15 08:43:53;;;;;;;4.43;4.03;;;34.80;75.80;;;;;;5030657;28;20240;-74
2023/06/15 08:46:19;;;;;;;6.85;4.00;;;34.30;75.40;;;;;;5049095;28;20293;-76
2023/06/15 08:48:46;;;;;;;6.53;4.25;;;34.30;76.60;;;;;;5049329;28;20290;-72
2023/06/15 08:51:12;;;;;;;5.05;4.55;;;34.70;76.10;;;;;;5049373;28;20218;-73
2023/06/15 08:53:42;;;;;;;11.25;4.60;;;34.90;75.80;;;;;;5049771;28;20175;-73
2023/06/15 08:56:13;;;;;;;8.98;4.18;;;34.90;77.10;;;;;;5031819;28;20214;-74
2023/06/15 08:58:49;;;;;;;5.43;4.30;;;34.80;75.00;;;;;;5024793;28;20705;-75
2023/06/15 09:01:22;;;;;;;4.78;4.15;;;34.70;74.30;;;;;;5046830;28;20297;-73
2023/06/15 09:03:55;;;;;;;10.40;4.38;;;34.20;73.80;;;;;;5064704;22;20251;-75
2023/06/15 09:06:22;;;;;;;6.32;4.10;;;33.10;76.30;;;;;;5031075;28;20234;-75
2023/06/15 09:08:48;;;;;;;7.45;4.03;;;33.60;75.60;;;;;;5029291;28;20191;-74
2023/06/15 09:11:15;;;;;;;10.45;4.80;;;33.90;75.00;;;;;;5032913;28;20172;-75
2023/06/15 09:13:41;;;;;;;6.30;4.18;;;33.80;76.10;;;;;;5013390;28;20716;-74
2023/06/15 09:16:08;;;;;;;4.50;4.10;;;34.00;74.00;;;;;;5031138;28;20204;-75
2023/06/15 09:18:50;;;;;;;8.32;5.97;;;34.00;75.00;;;;;;5029444;28;20265;-75
2023/06/15 09:21:18;;;;;;;8.20;5.53;;;33.90;75.20;;;;;;5008239;28;20217;-74
2023/06/15 09:23:45;;;;;;;5.25;4.75;;;34.10;73.80;;;;;;5029146;28;20193;-73
2023/06/15 09:26:25;;;;;;;8.93;5.15;;;33.30;74.00;;;;;;5030117;28;20263;-73
2023/06/15 09:28:54;;;;;;;11.95;4.63;;;32.60;75.60;;;;;;5028420;28;20204;-74
2023/06/15 09:31:31;;;;;;;7.95;6.60;;;31.90;77.40;;;;;;5028385;28;20208;-74
2023/06/15 09:34:05;;;;;;;8.88;6.03;;;30.70;78.70;;;;;;5025750;28;20252;-73
2023/06/15 09:36:49;;;;;;;8.32;5.38;;;29.00;79.70;;;;;;5025431;28;20259;-74
2023/06/15 09:39:22;;;;;;;6.18;4.60;;;27.90;84.30;;;;;;5022862;28;20219;-74
2023/06/15 09:41:58;;;;;;;7.25;4.65;;;27.70;87.10;;;;;;5013180;28;20226;-74
2023/06/15 09:44:25;;;;;;;6.40;4.82;;;27.10;89.40;;;;;;5013271;28;20189;-74
2023/06/15 09:46:53;;;;;;;7.25;4.68;;;27.10;90.60;;;;;;5010911;28;20258;-74
2023/06/15 09:49:26;;;;;;;6.78;4.18;;;27.00;91.30;;;;;;5024508;28;20338;-73
2023/06/15 09:51:53;;;;;;;5.07;4.38;;;27.10;91.60;;;;;;5026135;28;20745;-74
2023/06/15 09:54:21;;;;;;;7.70;4.60;;;27.00;91.70;;;;;;5027797;28;20270;-74
2023/06/15 09:56:51;;;;;;;7.45;4.07;;;26.90;91.60;;;;;;5026851;28;20725;-74
2023/06/15 09:59:18;;;;;;;9.68;6.10;;;27.00;91.60;;;;;;5030380;28;20176;-74
2023/06/15 10:01:50;;;;;;;7.55;4.53;;;26.70;92.00;;;;;;5027893;28;20200;-73
2023/06/15 10:04:17;;;;;;;7.90;5.00;;;26.70;92.20;;;;;;5029014;28;20269;-74
2023/06/15 10:06:45;;;;;;;7.95;5.85;;;26.50;92.50;;;;;;5029193;28;20250;-74
2023/06/15 10:09:16;;;;;;;8.48;5.40;;;26.40;92.50;;;;;;5026837;28;20219;-74
2023/06/15 10:11:45;;;;;;;13.27;8.45;;;26.20;93.60;;;;;;5026598;28;20187;-74
2023/06/15 10:14:34;;;;;;;6.90;4.25;;;25.90;94.90;;;;;;5010352;28;20192;-74
2023/06/15 10:17:06;;;;;;;10.75;4.82;;;25.90;95.40;;;;;;5002977;28;20308;-77
2023/06/15 10:19:38;;;;;;;5.88;4.72;;;26.00;95.10;;;;;;5030459;28;20231;-78
2023/06/15 10:22:08;;;;;;;7.65;5.30;;;26.00;94.40;;;;;;5009588;28;20208;-69
2023/06/15 10:24:35;;;;;;;9.77;5.07;;;25.90;94.30;;;;;;5027732;28;20341;-71
2023/06/15 10:27:01;;;;;;;5.82;5.15;;;25.80;94.30;;;;;;5027815;28;20211;-71
2023/06/15 10:30:07;;;;;;;6.30;4.55;;;25.90;94.50;;;;;;5010353;28;21558;-71
2023/06/15 10:32:38;;;;;;;7.63;5.38;;;25.80;94.40;;;;;;4976070;28;20846;-72
2023/06/15 10:35:25;;;;;;;5.10;4.05;;;25.70;94.60;;;;;;4987324;28;20208;-72
2023/06/15 10:38:17;;;;;;;7.95;4.45;;;25.50;94.50;;;;;;5009828;28;20213;-76
2023/06/15 10:40:48;;;;;;;9.07;4.82;;;25.20;94.70;;;;;;5009761;28;20205;-75
2023/06/15 10:43:18;;;;;;;8.13;4.22;;;25.10;95.00;;;;;;5008341;28;20255;-75
2023/06/15 10:45:44;;;;;;;6.60;4.18;;;24.80;94.80;;;;;;5008427;28;20235;-75
2023/06/15 10:48:24;;;;;;;5.70;4.50;;;24.90;95.20;;;;;;5012109;28;20935;-77
2023/06/15 10:50:53;;;;;;;8.15;4.68;;;24.90;95.20;;;;;;5008537;28;20516;-73
2023/06/15 10:53:22;;;;;;;7.80;4.43;;;25.10;94.30;;;;;;4983312;28;20231;-75
2023/06/15 10:55:52;;;;;;;4.20;3.67;;;25.20;94.10;;;;;;5008590;28;20245;-75
2023/06/15 10:58:18;;;;;;;12.45;6.13;;;25.30;92.90;;;;;;4991217;28;20304;-77
2023/06/15 11:00:45;;;;;;;13.52;9.32;;;25.00;92.60;;;;;;5012065;28;20212;-73
2023/06/15 11:03:24;;;;;;;13.63;7.10;;;24.90;92.90;;;;;;5009583;28;20217;-72
2023/06/15 11:06:07;;;;;;;7.78;4.88;;;24.80;94.20;;;;;;5012083;28;20650;-72
2023/06/15 11:08:46;;;;;;;6.55;4.13;;;24.70;95.00;;;;;;4989537;28;20230;-74
2023/06/15 11:11:13;;;;;;;5.63;3.92;;;24.90;94.60;;;;;;4985889;28;20787;-75
2023/06/15 11:14:05;;;;;;;4.40;3.63;;;24.80;94.60;;;;;;4988645;28;20217;-73
2023/06/15 11:16:35;;;;;;;7.97;4.05;;;24.90;94.90;;;;;;5004494;28;20267;-72
2023/06/15 11:19:10;;;;;;;6.15;3.92;;;24.90;94.70;;;;;;5006124;28;20579;-73
2023/06/15 11:21:40;;;;;;;5.47;3.45;;;25.00;94.30;;;;;;4988819;28;20224;-70
2023/06/15 11:24:06;;;;;;;3.70;3.35;;;25.00;93.40;;;;;;4989963;28;20215;-73
2023/06/15 11:26:34;;;;;;;9.43;4.78;;;25.00;93.00;;;;;;5002746;28;20224;-72
2023/06/15 11:29:03;;;;;;;7.00;4.70;;;25.10;94.30;;;;;;4986654;28;20209;-72
2023/06/15 11:31:31;;;;;;;5.75;4.40;;;25.10;95.00;;;;;;5000305;28;20209;-72
2023/06/15 11:33:56;;;;;;;7.68;5.10;;;25.30;94.30;;;;;;5001718;28;20292;-70
2023/06/15 11:36:22;;;;;;;7.32;4.43;;;25.40;94.10;;;;;;5001521;28;20826;-71
2023/06/15 11:38:48;;;;;;;7.10;4.88;;;25.70;95.70;;;;;;5009237;28;20555;-72
2023/06/15 11:41:13;;;;;;;9.38;4.80;;;25.50;95.10;;;;;;5007032;28;20180;-69
2023/06/15 11:43:51;;;;;;;6.00;4.63;;;25.30;95.10;;;;;;5007953;28;20225;-68
2023/06/15 11:46:20;;;;;;;10.68;8.90;;;25.50;95.40;;;;;;5007172;28;20303;-71
2023/06/15 11:48:47;;;;;;;7.18;5.60;;;25.70;95.30;;;;;;5012094;28;20205;-72
2023/06/15 11:51:15;;;;;;;6.63;4.00;;;25.60;95.20;;;;;;5009125;28;20209;-69
2023/06/15 11:53:42;;;;;;;5.63;3.97;;;25.80;95.10;;;;;;5011142;28;20201;-69
2023/06/15 11:56:12;;;;;;;5.13;4.07;;;25.70;95.30;;;;;;5011644;28;20174;-73
2023/06/15 11:58:39;;;;;;;7.40;4.40;;;25.80;95.30;;;;;;5011651;28;20722;-73
2023/06/15 12:01:05;;;;;;;9.32;3.67;;;25.90;95.20;;;;;;5012175;28;20687;-74
2023/06/15 12:03:37;;;;;;;7.70;6.13;;;25.80;94.30;;;;;;5010708;28;20229;-74
2023/06/15 12:06:03;;;;;;;6.15;4.03;;;25.60;94.00;;;;;;5007353;28;20205;-72
2023/06/15 12:08:30;;;;;;;6.07;3.67;;;25.40;93.40;;;;;;5009182;28;20263;-68
2023/06/15 12:10:56;;;;;;;6.13;3.63;;;25.30;93.30;;;;;;5009219;28;20259;-72
2023/06/15 12:13:26;;;;;;;4.70;3.30;;;25.50;93.10;;;;;;5004915;28;20623;-71
2023/06/15 12:15:52;;;;;;;6.78;3.28;;;25.40;92.50;;;;;;5007311;28;20203;-71
2023/06/15 12:18:19;;;;;;;4.82;3.45;;;25.60;93.00;;;;;;5009883;28;20726;-72
2023/06/15 12:20:45;;;;;;;7.95;4.47;;;25.70;92.50;;;;;;5009541;28;20209;-72
2023/06/15 12:23:10;;;;;;;5.97;3.55;;;25.90;92.90;;;;;;5013033;28;20217;-72
2023/06/15 12:25:47;;;;;;;6.03;3.50;;;26.00;92.50;;;;;;5008786;28;20281;-73
2023/06/15 12:28:17;;;;;;;6.40;3.20;;;26.20;92.30;;;;;;5008978;28;20227;-72
2023/06/15 12:30:47;;;;;;;7.63;3.50;;;26.40;91.50;;;;;;5020689;28;20239;-72
2023/06/15 12:33:27;;;;;;;6.55;3.55;;;26.50;91.50;;;;;;4998048;28;20216;-72
2023/06/15 12:35:54;;;;;;;3.97;3.17;;;26.60;91.10;;;;;;5029827;28;20217;-77
2023/06/15 12:38:21;;;;;;;5.55;3.22;;;26.40;90.80;;;;;;5028216;28;20204;-71
2023/06/15 12:40:48;;;;;;;5.68;2.97;;;26.20;90.40;;;;;;5009650;28;20277;-73
2023/06/15 12:43:16;;;;;;;5.93;3.58;;;26.20;90.60;;;;;;5025904;28;20212;-72
2023/06/15 12:45:42;;;;;;;5.20;2.78;;;26.40;91.00;;;;;;5012085;28;20215;-72
2023/06/15 12:48:07;;;;;;;5.03;3.08;;;26.30;90.90;;;;;;5009156;28;20708;-73